createdAt,value
2018-11-28T00:00:02.681Z,0.1
2018-11-28T00:05:02.858Z,0.1
2018-11-28T00:10:02.415Z,0.1
2018-11-28T00:15:02.878Z,0.1
2018-11-28T00:20:02.422Z,0.1
2018-11-28T00:25:02.921Z,0.1
2018-11-28T00:30:02.335Z,0.0
2018-11-28T00:35:02.894Z,0.0
2018-11-28T00:40:02.378Z,0.0
2018-11-28T00:45:02.819Z,0.0
2018-11-28T00:50:02.303Z,0.0
2018-11-28T00:55:02.818Z,0.1
2018-11-28T01:00:03.268Z,0.1
2018-11-28T01:05:02.347Z,0.1
2018-11-28T01:10:02.913Z,0.1
2018-11-28T01:15:02.337Z,0.3
2018-11-28T01:20:02.833Z,0.3
2018-11-28T01:25:02.314Z,0.3
2018-11-28T01:30:02.794Z,0.4
2018-11-28T01:35:02.768Z,0.4
2018-11-28T01:40:02.311Z,0.6
2018-11-28T01:45:02.849Z,0.6
2018-11-28T01:50:02.421Z,0.6
2018-11-28T01:55:02.951Z,0.6
2018-11-28T02:00:02.427Z,0.6
2018-11-28T02:05:03.229Z,0.4
2018-11-28T02:10:02.837Z,0.6
2018-11-28T02:15:02.328Z,0.6
2018-11-28T02:20:02.926Z,0.4
2018-11-28T02:25:02.432Z,0.6
2018-11-28T02:30:02.918Z,0.4
2018-11-28T02:35:02.398Z,0.4
2018-11-28T02:40:02.954Z,0.4
2018-11-28T02:45:02.437Z,0.4
2018-11-28T02:50:02.988Z,0.4
2018-11-28T02:55:02.467Z,0.4
2018-11-28T03:00:02.952Z,0.4
2018-11-28T03:05:02.494Z,0.4
2018-11-28T03:10:03.053Z,0.6
2018-11-28T03:15:02.573Z,0.6
2018-11-28T03:20:03.096Z,0.6
2018-11-28T03:25:02.536Z,0.6
2018-11-28T03:30:03.043Z,0.7
2018-11-28T03:35:02.653Z,0.7
2018-11-28T03:40:03.173Z,0.7
2018-11-28T03:45:02.579Z,0.7
2018-11-28T03:50:03.024Z,0.7
2018-11-28T03:55:02.420Z,0.8
2018-11-28T04:00:03.018Z,0.8
2018-11-28T04:05:02.507Z,0.8
2018-11-28T04:10:02.813Z,1.1
2018-11-28T04:15:02.324Z,1.1
2018-11-28T04:20:02.839Z,1.1
2018-11-28T04:25:02.277Z,1.1
2018-11-28T04:30:02.727Z,1.2
2018-11-28T04:35:03.220Z,1.2
2018-11-28T04:40:02.787Z,1.3
2018-11-28T04:45:03.220Z,1.3
2018-11-28T04:50:02.728Z,1.3
2018-11-28T04:55:03.221Z,1.3
2018-11-28T05:00:02.638Z,1.3
2018-11-28T05:05:03.219Z,1.3
2018-11-28T05:10:02.796Z,1.6
2018-11-28T05:15:02.289Z,1.6
2018-11-28T05:20:02.803Z,1.6
2018-11-28T05:25:02.308Z,1.7
2018-11-28T05:30:02.762Z,1.8
2018-11-28T05:35:02.282Z,1.8
2018-11-28T05:40:03.017Z,2.0
2018-11-28T05:45:02.549Z,2.0
2018-11-28T05:50:03.034Z,2.0
2018-11-28T05:55:02.758Z,2.0
2018-11-28T06:00:03.200Z,2.0
2018-11-28T06:05:03.033Z,2.0
2018-11-28T06:10:02.637Z,2.0
2018-11-28T06:15:03.373Z,2.0
2018-11-28T06:20:02.830Z,2.0
2018-11-28T06:25:02.457Z,2.0
2018-11-28T06:30:03.026Z,2.0
2018-11-28T06:35:02.525Z,2.0
2018-11-28T06:40:03.088Z,2.0
2018-11-28T06:45:02.668Z,2.0
2018-11-28T06:50:03.411Z,2.0
2018-11-28T06:55:02.890Z,2.0
2018-11-28T07:00:02.423Z,2.2
2018-11-28T07:05:02.876Z,2.4
2018-11-28T07:10:02.674Z,2.5
2018-11-28T07:15:03.144Z,2.5
2018-11-28T07:20:02.527Z,2.7
2018-11-28T07:25:03.257Z,2.5
2018-11-28T07:30:02.982Z,2.7
2018-11-28T07:35:02.432Z,2.7
2018-11-28T07:40:03.038Z,2.7
2018-11-28T07:45:02.842Z,2.9
2018-11-28T07:50:02.370Z,2.9
2018-11-28T07:55:02.880Z,3.0
2018-11-28T08:00:02.860Z,3.0
2018-11-28T08:05:02.347Z,3.2
2018-11-28T08:10:03.450Z,3.7
2018-11-28T08:15:03.169Z,3.7
2018-11-28T08:20:02.764Z,4.0
2018-11-28T08:25:03.415Z,4.3
2018-11-28T08:30:02.927Z,4.3
2018-11-28T08:35:02.411Z,4.5
2018-11-28T08:40:02.941Z,4.5
2018-11-28T08:45:02.553Z,4.5
2018-11-28T08:50:03.205Z,4.8
2018-11-28T08:55:02.808Z,4.8
2018-11-28T09:00:02.503Z,5.0
2018-11-28T09:05:03.126Z,5.0
2018-11-28T09:10:02.726Z,5.0
2018-11-28T09:15:02.570Z,5.0
2018-11-28T09:20:03.322Z,5.3
2018-11-28T09:25:02.845Z,5.3
2018-11-28T09:30:02.371Z,5.3
2018-11-28T09:35:03.070Z,5.3
2018-11-28T09:40:02.666Z,5.3
2018-11-28T09:45:03.173Z,5.3
2018-11-28T09:50:02.630Z,5.4
2018-11-28T09:55:03.046Z,5.4
2018-11-28T10:00:02.509Z,5.5
2018-11-28T10:05:03.406Z,5.5
2018-11-28T10:10:03.150Z,5.8
2018-11-28T10:15:02.640Z,5.9
2018-11-28T10:20:03.162Z,5.9
2018-11-28T10:25:02.560Z,5.9
2018-11-28T10:30:02.932Z,6.0
2018-11-28T10:35:02.401Z,6.0
2018-11-28T10:40:02.989Z,6.0
2018-11-28T10:45:02.417Z,6.1
2018-11-28T10:50:02.887Z,6.1
2018-11-28T10:55:02.379Z,6.1
2018-11-28T11:00:02.813Z,6.4
2018-11-28T11:05:02.251Z,6.4
2018-11-28T11:10:02.901Z,6.4
2018-11-28T11:15:02.445Z,6.4
2018-11-28T11:20:03.072Z,6.4
2018-11-28T11:25:02.891Z,6.5
2018-11-28T11:30:02.360Z,6.4
2018-11-28T11:35:02.808Z,6.5
2018-11-28T11:40:02.447Z,6.6
2018-11-28T11:45:02.942Z,6.6
2018-11-28T11:50:02.378Z,6.6
2018-11-28T11:55:02.865Z,6.6
2018-11-28T12:00:02.308Z,6.6
2018-11-28T12:05:02.906Z,6.9
2018-11-28T12:10:08.669Z,6.9
2018-11-28T12:15:02.577Z,6.9
2018-11-28T12:20:03.097Z,7.0
2018-11-28T12:25:02.694Z,7.0
2018-11-28T12:30:03.154Z,7.0
2018-11-28T12:35:02.760Z,7.1
2018-11-28T12:40:02.575Z,7.1
2018-11-28T12:45:03.051Z,7.4
2018-11-28T12:50:02.536Z,7.4
2018-11-28T12:55:03.005Z,7.5
2018-11-28T13:00:02.499Z,7.6
2018-11-28T13:05:02.984Z,7.5
2018-11-28T13:10:02.504Z,7.4
2018-11-28T13:15:02.991Z,7.1
2018-11-28T13:20:02.414Z,7.1
2018-11-28T13:25:02.877Z,7.1
2018-11-28T13:30:02.324Z,7.1
2018-11-28T13:35:02.805Z,7.0
2018-11-28T13:40:02.603Z,7.0
2018-11-28T13:45:03.164Z,7.0
2018-11-28T13:50:02.612Z,7.0
2018-11-28T13:55:37.166Z,7.0
2018-11-28T14:00:03.066Z,7.0
2018-11-28T14:05:02.589Z,7.0
2018-11-28T14:10:03.086Z,7.0
2018-11-28T14:15:02.729Z,7.0
2018-11-28T14:20:03.218Z,7.0
2018-11-28T14:25:02.742Z,7.0
2018-11-28T14:30:03.161Z,7.0
2018-11-28T14:35:02.689Z,6.9
2018-11-28T14:40:03.237Z,6.9
2018-11-28T14:45:02.739Z,6.9
2018-11-28T14:50:03.215Z,7.0
2018-11-28T14:55:02.691Z,6.9
2018-11-28T15:00:03.479Z,6.9
2018-11-28T15:05:03.214Z,6.9
2018-11-28T15:10:02.783Z,6.9
2018-11-28T15:15:02.282Z,6.9
2018-11-28T15:20:02.717Z,6.6
2018-11-28T15:25:03.196Z,6.6
2018-11-28T15:30:02.670Z,6.6
2018-11-28T15:35:03.218Z,6.6
2018-11-28T15:40:02.755Z,6.9
2018-11-28T15:45:02.381Z,6.6
2018-11-28T15:50:02.924Z,6.5
2018-11-28T15:55:02.498Z,6.4
2018-11-28T16:00:03.046Z,6.1
2018-11-28T16:05:02.584Z,6.0
2018-11-28T16:10:03.188Z,5.9
2018-11-28T16:15:02.758Z,5.3
2018-11-28T16:20:02.379Z,5.0
2018-11-28T16:25:02.919Z,5.0
2018-11-28T16:30:02.520Z,5.3
2018-11-28T16:35:03.130Z,5.4
2018-11-28T16:40:02.738Z,5.9
2018-11-28T16:45:02.297Z,5.9
2018-11-28T16:50:02.852Z,6.0
2018-11-28T16:55:02.363Z,6.0
2018-11-28T17:00:02.921Z,6.0
2018-11-28T17:05:02.438Z,5.9
2018-11-28T17:10:03.074Z,5.9
2018-11-28T17:15:02.558Z,5.8
2018-11-28T17:20:03.142Z,5.5
2018-11-28T17:25:02.662Z,5.5
2018-11-28T17:30:03.326Z,5.5
2018-11-28T17:35:02.762Z,5.8
2018-11-28T17:40:02.305Z,5.5
2018-11-28T17:45:02.720Z,5.8
2018-11-28T17:50:02.293Z,5.0
2018-11-28T17:55:02.761Z,5.3
2018-11-28T18:00:02.302Z,5.0
2018-11-28T18:05:02.947Z,5.3
2018-11-28T18:10:02.495Z,5.3
2018-11-28T18:15:03.014Z,5.0
2018-11-28T18:20:02.592Z,5.3
2018-11-28T18:25:03.117Z,5.3
2018-11-28T18:30:02.574Z,5.0
2018-11-28T18:35:03.086Z,5.3
2018-11-28T18:40:02.634Z,5.3
2018-11-28T18:45:03.116Z,5.3
2018-11-28T18:50:02.696Z,5.3
2018-11-28T18:55:02.551Z,5.3
2018-11-28T19:00:02.982Z,5.3
2018-11-28T19:05:02.628Z,5.3
2018-11-28T19:10:03.237Z,5.3
2018-11-28T19:15:02.732Z,5.3
2018-11-28T19:20:02.375Z,5.3
2018-11-28T19:25:02.851Z,5.3
2018-11-28T19:30:02.287Z,5.3
2018-11-28T19:35:03.187Z,5.3
2018-11-28T19:40:02.733Z,5.3
2018-11-28T19:45:03.256Z,5.4
2018-11-28T19:50:02.714Z,5.8
2018-11-28T19:55:02.309Z,5.9
2018-11-28T20:00:03.197Z,6.0
2018-11-28T20:05:02.776Z,6.1
2018-11-28T20:10:02.438Z,6.1
2018-11-28T20:15:03.056Z,6.1
2018-11-28T20:20:02.589Z,6.1
2018-11-28T20:25:02.529Z,6.4
2018-11-28T20:30:03.151Z,6.1
2018-11-28T20:35:02.931Z,6.4
2018-11-28T20:40:02.934Z,6.4
2018-11-28T20:45:02.734Z,6.4
2018-11-28T20:50:02.438Z,6.4
2018-11-28T20:55:02.367Z,6.4
2018-11-28T21:00:02.467Z,6.4
2018-11-28T21:05:03.214Z,6.5
2018-11-28T21:10:02.840Z,6.5
2018-11-28T21:15:02.375Z,6.5
2018-11-28T21:20:03.068Z,6.5
2018-11-28T21:25:02.662Z,6.5
2018-11-28T21:30:03.146Z,6.5
2018-11-28T21:35:02.635Z,6.5
2018-11-28T21:40:03.230Z,6.5
2018-11-28T21:45:02.775Z,6.5
2018-11-28T21:50:03.227Z,6.5
2018-11-28T21:55:02.696Z,6.6
2018-11-28T22:00:02.345Z,6.6
2018-11-28T22:05:02.919Z,6.6
2018-11-28T22:10:02.401Z,6.6
2018-11-28T22:15:02.952Z,6.6
2018-11-28T22:20:02.408Z,6.6
2018-11-28T22:25:02.853Z,6.9
2018-11-28T22:30:02.598Z,6.9
2018-11-28T22:35:03.230Z,6.9
2018-11-28T22:40:02.833Z,6.9
2018-11-28T22:45:02.385Z,6.9
2018-11-28T22:50:02.854Z,6.9
2018-11-28T22:55:02.288Z,6.9
2018-11-28T23:00:02.743Z,7.0
2018-11-28T23:05:02.457Z,7.1
2018-11-28T23:10:03.012Z,7.1
2018-11-28T23:15:02.536Z,7.1
2018-11-28T23:20:03.021Z,7.1
2018-11-28T23:25:02.487Z,7.4
2018-11-28T23:30:03.096Z,7.1
2018-11-28T23:35:02.616Z,7.1
2018-11-28T23:40:03.131Z,7.1
2018-11-28T23:45:02.633Z,7.4
2018-11-28T23:50:03.193Z,7.4
2018-11-28T23:55:02.755Z,7.4
